createdAt,value
2023-04-30T00:00:36.324Z,14.75
2023-04-30T00:03:03.154Z,18.33
2023-04-30T00:05:29.833Z,15.68
2023-04-30T00:07:56.625Z,13.97
2023-04-30T00:10:23.416Z,17.52
2023-04-30T00:12:50.017Z,15.85
2023-04-30T00:15:16.784Z,17.17
2023-04-30T00:17:43.458Z,15.50
2023-04-30T00:20:10.604Z,16.83
2023-04-30T00:22:37.249Z,16.13
2023-04-30T00:25:04.156Z,16.88
2023-04-30T00:27:30.917Z,15.45
2023-04-30T00:29:58.335Z,15.02
2023-04-30T00:32:25.090Z,14.60
2023-04-30T00:34:51.902Z,15.25
2023-04-30T00:37:18.497Z,15.98
2023-04-30T00:39:45.249Z,14.98
2023-04-30T00:42:11.901Z,14.25
2023-04-30T00:44:38.547Z,14.17
2023-04-30T00:47:05.165Z,15.52
2023-04-30T00:49:32.051Z,17.60
2023-04-30T00:51:58.773Z,16.25
2023-04-30T00:54:26.104Z,16.60
2023-04-30T00:56:52.747Z,16.30
2023-04-30T00:59:19.779Z,18.73
2023-04-30T01:01:46.532Z,15.68
2023-04-30T01:04:13.367Z,19.65
2023-04-30T01:06:40.326Z,18.65
2023-04-30T01:09:07.442Z,19.10
2023-04-30T01:11:50.010Z,16.50
2023-04-30T01:14:19.422Z,14.85
2023-04-30T01:16:59.169Z,15.57
2023-04-30T01:19:46.604Z,15.90
2023-04-30T01:22:41.729Z,15.87
2023-04-30T01:25:26.018Z,16.73
2023-04-30T01:28:17.972Z,16.17
2023-04-30T01:30:45.138Z,14.43
2023-04-30T01:33:13.191Z,15.60
2023-04-30T01:36:07.853Z,16.83
2023-04-30T01:39:08.399Z,16.77
2023-04-30T01:42:08.372Z,17.10
2023-04-30T01:44:53.229Z,15.55
2023-04-30T01:48:03.198Z,16.08
2023-04-30T01:50:41.858Z,13.77
2023-04-30T01:53:14.073Z,15.18
2023-04-30T01:55:44.272Z,15.68
2023-04-30T01:58:13.710Z,17.63
2023-04-30T02:00:40.600Z,15.15
2023-04-30T02:03:07.558Z,15.67
2023-04-30T02:05:34.346Z,16.33
2023-04-30T02:08:00.956Z,14.68
2023-04-30T02:10:28.095Z,16.25
2023-04-30T02:12:54.846Z,19.80
2023-04-30T02:15:21.586Z,19.33
2023-04-30T02:17:48.429Z,19.85
2023-04-30T02:20:15.503Z,16.10
2023-04-30T02:22:42.263Z,18.15
2023-04-30T02:25:09.418Z,16.25
2023-04-30T02:27:36.098Z,19.07
2023-04-30T02:30:02.919Z,18.80
2023-04-30T02:32:29.601Z,17.95
2023-04-30T02:34:56.579Z,19.95
2023-04-30T02:37:23.407Z,19.02
2023-04-30T02:39:50.072Z,17.53
2023-04-30T02:42:16.749Z,18.08
2023-04-30T02:44:43.326Z,18.73
2023-04-30T02:47:09.956Z,18.15
2023-04-30T02:49:36.606Z,16.92
2023-04-30T02:52:03.281Z,18.80
2023-04-30T02:54:29.872Z,19.10
2023-04-30T02:56:56.552Z,17.15
2023-04-30T02:59:23.206Z,19.90
2023-04-30T03:01:49.945Z,19.63
2023-04-30T03:04:16.663Z,17.87
2023-04-30T03:06:43.424Z,18.75
2023-04-30T03:09:10.076Z,18.38
2023-04-30T03:11:36.714Z,22.73
2023-04-30T03:14:04.027Z,18.65
2023-04-30T03:16:30.732Z,22.87
2023-04-30T03:18:57.450Z,26.08
2023-04-30T03:21:24.083Z,26.40
2023-04-30T03:23:50.718Z,26.73
2023-04-30T03:26:17.546Z,26.90
2023-04-30T03:28:44.284Z,26.87
2023-04-30T03:31:11.015Z,22.30
2023-04-30T03:33:37.801Z,22.38
2023-04-30T03:36:04.818Z,21.63
2023-04-30T03:38:31.468Z,22.65
2023-04-30T03:40:58.147Z,20.60
2023-04-30T03:43:24.759Z,22.60
2023-04-30T03:45:51.476Z,36.30
2023-04-30T03:48:18.422Z,28.35
2023-04-30T03:50:45.086Z,23.10
2023-04-30T03:53:12.080Z,23.37
2023-04-30T03:55:38.966Z,23.77
2023-04-30T03:58:05.722Z,25.33
2023-04-30T04:00:32.532Z,23.23
2023-04-30T04:02:59.324Z,22.52
2023-04-30T04:05:26.155Z,21.27
2023-04-30T04:07:52.744Z,23.02
2023-04-30T04:10:19.370Z,20.65
2023-04-30T04:12:46.278Z,20.23
2023-04-30T04:15:12.936Z,21.15
2023-04-30T04:17:39.569Z,20.63
2023-04-30T04:20:06.922Z,20.65
2023-04-30T04:22:33.750Z,20.45
2023-04-30T04:25:03.217Z,20.70
2023-04-30T04:27:29.935Z,19.08
2023-04-30T04:29:56.837Z,18.73
2023-04-30T04:32:23.766Z,18.25
2023-04-30T04:34:50.650Z,16.92
2023-04-30T04:37:17.254Z,17.73
2023-04-30T04:39:43.853Z,20.10
2023-04-30T04:42:10.470Z,17.80
2023-04-30T04:44:37.098Z,20.30
2023-04-30T04:47:04.147Z,19.83
2023-04-30T04:49:30.869Z,18.13
2023-04-30T04:51:57.615Z,21.13
2023-04-30T04:54:24.295Z,15.37
2023-04-30T04:56:51.091Z,16.27
2023-04-30T04:59:17.751Z,15.93
2023-04-30T05:01:44.704Z,16.40
2023-04-30T05:04:11.354Z,18.35
2023-04-30T05:06:38.156Z,16.53
2023-04-30T05:09:04.763Z,18.40
2023-04-30T05:11:31.508Z,13.38
2023-04-30T05:13:58.241Z,15.00
2023-04-30T05:16:24.996Z,15.05
2023-04-30T05:18:51.661Z,15.20
2023-04-30T05:21:18.344Z,14.80
2023-04-30T05:23:45.160Z,14.13
2023-04-30T05:26:11.902Z,12.30
2023-04-30T05:28:38.767Z,15.85
2023-04-30T05:31:05.486Z,17.27
2023-04-30T05:33:32.272Z,13.68
2023-04-30T05:35:58.996Z,14.07
2023-04-30T05:38:25.641Z,15.20
2023-04-30T05:40:52.343Z,12.73
2023-04-30T05:43:18.971Z,18.47
2023-04-30T05:45:45.655Z,12.77
2023-04-30T05:48:12.413Z,14.35
2023-04-30T05:50:39.038Z,15.27
2023-04-30T05:53:05.779Z,15.43
2023-04-30T05:55:32.408Z,14.97
2023-04-30T05:58:00.413Z,12.73
2023-04-30T06:00:27.036Z,14.35
2023-04-30T06:02:53.870Z,13.05
2023-04-30T06:05:20.617Z,12.63
2023-04-30T06:07:47.276Z,13.10
2023-04-30T06:10:13.857Z,13.50
2023-04-30T06:12:40.688Z,13.63
2023-04-30T06:15:07.680Z,14.52
2023-04-30T06:17:34.541Z,16.13
2023-04-30T06:20:01.370Z,15.07
2023-04-30T06:22:29.204Z,15.20
2023-04-30T06:24:55.860Z,14.25
2023-04-30T06:27:22.513Z,13.40
2023-04-30T06:29:49.156Z,16.70
2023-04-30T06:32:15.808Z,12.03
2023-04-30T06:34:42.455Z,12.57
2023-04-30T06:37:09.044Z,13.30
2023-04-30T06:39:35.767Z,16.40
2023-04-30T06:42:02.449Z,14.30
2023-04-30T06:44:29.081Z,14.03
2023-04-30T06:46:55.856Z,15.45
2023-04-30T06:49:22.576Z,15.90
2023-04-30T06:51:49.192Z,13.18
2023-04-30T06:54:15.955Z,19.15
2023-04-30T06:56:42.630Z,12.80
2023-04-30T06:59:09.109Z,14.57
2023-04-30T07:01:35.917Z,17.50
2023-04-30T07:04:02.634Z,13.18
2023-04-30T07:06:29.306Z,14.35
2023-04-30T07:08:56.075Z,17.23
2023-04-30T07:11:22.821Z,13.57
2023-04-30T07:13:49.486Z,12.88
2023-04-30T07:16:16.202Z,11.93
2023-04-30T07:18:43.314Z,14.50
2023-04-30T07:21:10.017Z,15.37
2023-04-30T07:23:36.667Z,12.20
2023-04-30T07:26:03.418Z,11.80
2023-04-30T07:28:30.010Z,16.08
2023-04-30T07:30:56.641Z,12.50
2023-04-30T07:33:23.494Z,14.27
2023-04-30T07:35:50.192Z,11.18
2023-04-30T07:38:16.882Z,11.60
2023-04-30T07:40:43.537Z,10.48
2023-04-30T07:43:10.184Z,11.23
2023-04-30T07:45:36.819Z,9.73
2023-04-30T07:48:03.610Z,11.15
2023-04-30T07:50:31.852Z,13.70
2023-04-30T07:52:58.560Z,12.60
2023-04-30T07:55:25.469Z,13.20
2023-04-30T07:57:52.126Z,12.43
2023-04-30T08:00:18.932Z,11.85
2023-04-30T08:02:45.727Z,12.15
2023-04-30T08:05:12.759Z,10.93
2023-04-30T08:07:39.569Z,9.75
2023-04-30T08:10:06.651Z,9.77
2023-04-30T08:12:36.585Z,10.82
2023-04-30T08:15:04.796Z,13.25
2023-04-30T08:17:32.527Z,12.07
2023-04-30T08:20:00.417Z,12.98
2023-04-30T08:22:27.180Z,11.57
2023-04-30T08:24:53.790Z,10.73
2023-04-30T08:27:20.442Z,10.55
2023-04-30T08:29:47.133Z,10.20
2023-04-30T08:32:14.074Z,10.43
2023-04-30T08:34:40.877Z,9.50
2023-04-30T08:37:07.623Z,10.68
2023-04-30T08:39:34.943Z,14.55
2023-04-30T08:42:09.421Z,9.73
2023-04-30T08:44:37.215Z,11.10
2023-04-30T08:47:04.406Z,11.03
2023-04-30T08:49:31.134Z,10.88
2023-04-30T08:51:57.828Z,11.63
2023-04-30T08:54:26.065Z,10.75
2023-04-30T08:56:52.880Z,13.13
2023-04-30T08:59:19.875Z,13.10
2023-04-30T09:01:46.706Z,10.73
2023-04-30T09:04:13.725Z,9.45
2023-04-30T09:06:40.650Z,11.25
2023-04-30T09:09:13.394Z,11.50
2023-04-30T09:11:40.119Z,14.30
2023-04-30T09:14:06.856Z,13.57
2023-04-30T09:16:48.373Z,12.35
2023-04-30T09:19:25.796Z,9.45
2023-04-30T09:21:53.279Z,11.73
2023-04-30T09:24:20.133Z,14.00
2023-04-30T09:26:47.189Z,11.75
2023-04-30T09:29:14.198Z,10.63
2023-04-30T09:31:44.712Z,13.52
2023-04-30T09:34:11.754Z,11.40
2023-04-30T09:36:51.441Z,10.03
2023-04-30T09:39:18.333Z,11.65
2023-04-30T09:41:45.005Z,12.05
2023-04-30T09:44:32.761Z,12.13
2023-04-30T09:46:59.606Z,13.05
2023-04-30T09:49:26.599Z,11.33
2023-04-30T09:52:00.928Z,10.75
2023-04-30T09:54:29.557Z,8.20
2023-04-30T09:57:04.201Z,10.57
2023-04-30T09:59:33.475Z,10.18
2023-04-30T10:02:02.303Z,9.70
2023-04-30T10:04:42.110Z,11.43
2023-04-30T10:07:10.852Z,11.93
2023-04-30T10:09:41.205Z,11.70
2023-04-30T10:12:14.880Z,10.25
2023-04-30T10:14:48.152Z,9.80
2023-04-30T10:17:17.156Z,10.63
2023-04-30T10:19:48.442Z,8.75
2023-04-30T10:22:16.399Z,9.20
2023-04-30T10:24:43.552Z,7.13
2023-04-30T10:27:10.323Z,9.00
2023-04-30T10:29:37.014Z,9.68
2023-04-30T10:32:04.606Z,8.73
2023-04-30T10:34:43.388Z,8.68
2023-04-30T10:37:51.076Z,10.07
2023-04-30T10:40:19.326Z,8.03
2023-04-30T10:42:48.309Z,8.77
2023-04-30T10:45:17.735Z,7.75
2023-04-30T10:47:44.890Z,8.40
2023-04-30T10:50:11.817Z,9.73
2023-04-30T10:52:39.020Z,7.07
2023-04-30T10:55:08.012Z,9.15
2023-04-30T10:57:47.081Z,9.38
2023-04-30T11:00:34.767Z,11.43
2023-04-30T11:03:04.250Z,9.07
2023-04-30T11:05:37.742Z,8.53
2023-04-30T11:08:05.372Z,8.90
2023-04-30T11:10:35.342Z,10.32
2023-04-30T11:13:07.062Z,9.80
2023-04-30T11:15:40.966Z,7.60
2023-04-30T11:18:09.152Z,9.10
2023-04-30T11:20:41.225Z,8.50
2023-04-30T11:23:37.917Z,9.25
2023-04-30T11:26:07.860Z,8.20
2023-04-30T11:28:34.831Z,6.65
2023-04-30T11:31:03.493Z,9.00
2023-04-30T11:33:31.624Z,10.15
2023-04-30T11:36:00.605Z,8.25
2023-04-30T11:38:31.040Z,7.82
2023-04-30T11:40:58.536Z,6.60
2023-04-30T11:43:29.817Z,8.80
2023-04-30T11:46:12.567Z,8.30
2023-04-30T11:48:44.304Z,8.23
2023-04-30T11:51:18.823Z,7.65
2023-04-30T11:53:50.199Z,9.73
2023-04-30T11:56:24.466Z,9.00
2023-04-30T11:58:54.273Z,8.45
2023-04-30T12:01:21.374Z,8.63
2023-04-30T12:03:50.850Z,8.02
2023-04-30T12:06:28.599Z,6.65
2023-04-30T12:08:57.071Z,5.97
2023-04-30T12:11:28.397Z,6.30
2023-04-30T12:14:02.249Z,5.22
2023-04-30T12:16:39.447Z,6.45
2023-04-30T12:19:06.147Z,6.45
2023-04-30T12:21:34.159Z,6.83
2023-04-30T12:24:02.868Z,4.35
2023-04-30T12:26:40.436Z,6.18
2023-04-30T12:29:12.069Z,4.03
2023-04-30T12:31:41.187Z,4.57
2023-04-30T12:34:12.501Z,4.77
2023-04-30T12:36:40.938Z,5.40
2023-04-30T12:39:09.115Z,4.93
2023-04-30T12:41:49.297Z,3.95
2023-04-30T12:44:21.635Z,4.75
2023-04-30T12:46:49.447Z,4.00
2023-04-30T12:49:33.984Z,3.58
2023-04-30T12:52:06.055Z,2.97
2023-04-30T12:54:32.801Z,3.97
2023-04-30T12:57:07.793Z,2.38
2023-04-30T12:59:37.581Z,3.77
2023-04-30T13:02:13.253Z,3.92
2023-04-30T13:04:41.624Z,4.45
2023-04-30T13:07:08.583Z,5.10
2023-04-30T13:09:37.074Z,3.13
2023-04-30T13:12:04.457Z,4.27
2023-04-30T13:14:32.177Z,5.70
2023-04-30T13:16:59.134Z,2.85
2023-04-30T13:19:25.817Z,3.53
2023-04-30T13:21:52.978Z,3.67
2023-04-30T13:24:19.615Z,4.37
2023-04-30T13:26:46.224Z,5.43
2023-04-30T13:29:15.679Z,2.55
2023-04-30T13:31:42.522Z,2.28
2023-04-30T13:34:10.061Z,2.50
2023-04-30T13:36:36.835Z,3.47
2023-04-30T13:39:03.748Z,3.20
2023-04-30T13:41:30.442Z,3.15
2023-04-30T13:43:57.162Z,3.83
2023-04-30T13:46:24.529Z,5.28
2023-04-30T13:48:51.358Z,3.93
2023-04-30T13:51:17.999Z,4.03
2023-04-30T13:53:44.759Z,4.00
2023-04-30T13:56:12.105Z,3.20
2023-04-30T13:58:38.909Z,3.08
2023-04-30T14:01:05.860Z,3.57
2023-04-30T14:03:32.557Z,4.63
2023-04-30T14:05:59.326Z,3.85
2023-04-30T14:08:26.037Z,2.92
2023-04-30T14:10:52.662Z,3.80
2023-04-30T14:13:19.292Z,3.90
2023-04-30T14:15:46.009Z,2.63
2023-04-30T14:18:12.686Z,2.47
2023-04-30T14:20:39.533Z,3.45
2023-04-30T14:23:06.178Z,2.80
2023-04-30T14:25:32.830Z,2.57
2023-04-30T14:27:59.541Z,8.38
2023-04-30T14:30:26.387Z,2.92
2023-04-30T14:32:53.098Z,2.55
2023-04-30T14:35:19.735Z,3.60
2023-04-30T14:37:46.542Z,3.30
2023-04-30T14:40:13.754Z,2.72
2023-04-30T14:42:40.490Z,3.72
2023-04-30T14:45:07.895Z,2.42
2023-04-30T14:47:34.598Z,1.73
2023-04-30T14:50:01.361Z,2.53
2023-04-30T14:52:31.231Z,2.08
2023-04-30T14:54:57.906Z,2.58
2023-04-30T14:57:24.889Z,2.20
2023-04-30T14:59:51.521Z,2.58
2023-04-30T15:02:18.301Z,2.73
2023-04-30T15:04:45.017Z,2.42
2023-04-30T15:07:14.581Z,2.40
2023-04-30T15:09:41.321Z,3.30
2023-04-30T15:12:07.907Z,6.15
2023-04-30T15:14:34.571Z,6.63
2023-04-30T15:17:01.310Z,4.85
2023-04-30T15:19:27.953Z,4.57
2023-04-30T15:21:54.569Z,5.45
2023-04-30T15:24:21.337Z,3.80
2023-04-30T15:26:48.098Z,3.17
2023-04-30T15:29:14.740Z,3.55
2023-04-30T15:31:41.437Z,3.70
2023-04-30T15:34:08.120Z,4.05
2023-04-30T15:36:34.824Z,5.13
2023-04-30T15:39:01.567Z,3.43
2023-04-30T15:41:28.176Z,3.92
2023-04-30T15:43:54.872Z,7.68
2023-04-30T15:46:21.598Z,4.95
2023-04-30T15:48:48.243Z,10.40
2023-04-30T15:51:14.950Z,13.27
2023-04-30T15:53:41.648Z,9.38
2023-04-30T15:56:08.763Z,4.80
2023-04-30T15:58:35.429Z,11.13
2023-04-30T16:01:02.092Z,12.25
2023-04-30T16:03:28.776Z,6.80
2023-04-30T16:05:55.677Z,7.07
2023-04-30T16:08:22.372Z,7.05
2023-04-30T16:10:49.107Z,9.73
2023-04-30T16:13:15.889Z,10.25
2023-04-30T16:15:42.555Z,12.10
2023-04-30T16:18:09.157Z,6.97
2023-04-30T16:20:37.534Z,6.28
2023-04-30T16:23:04.492Z,8.27
2023-04-30T16:25:31.150Z,7.68
2023-04-30T16:27:57.819Z,9.23
2023-04-30T16:30:24.491Z,10.50
2023-04-30T16:32:51.233Z,16.38
2023-04-30T16:35:17.874Z,8.18
2023-04-30T16:37:44.505Z,10.13
2023-04-30T16:40:11.474Z,11.00
2023-04-30T16:42:38.282Z,7.93
2023-04-30T16:45:05.260Z,8.80
2023-04-30T16:47:31.895Z,11.45
2023-04-30T16:49:58.866Z,11.50
2023-04-30T16:52:25.584Z,8.97
2023-04-30T16:54:52.267Z,6.65
2023-04-30T16:57:18.910Z,7.68
2023-04-30T16:59:45.585Z,7.43
2023-04-30T17:02:12.836Z,9.38
2023-04-30T17:04:39.576Z,7.37
2023-04-30T17:07:06.190Z,8.45
2023-04-30T17:09:32.924Z,14.35
2023-04-30T17:11:59.589Z,8.13
2023-04-30T17:14:26.283Z,10.02
2023-04-30T17:16:52.844Z,8.60
2023-04-30T17:19:19.476Z,7.90
2023-04-30T17:21:46.091Z,8.73
2023-04-30T17:24:12.871Z,8.93
2023-04-30T17:26:39.520Z,11.90
2023-04-30T17:29:06.404Z,7.60
2023-04-30T17:31:33.400Z,10.32
2023-04-30T17:34:00.113Z,8.45
2023-04-30T17:36:26.955Z,9.40
2023-04-30T17:38:54.125Z,17.33
2023-04-30T17:41:20.824Z,10.30
2023-04-30T17:43:47.498Z,6.80
2023-04-30T17:46:14.420Z,21.52
2023-04-30T17:48:41.134Z,9.00
2023-04-30T17:51:07.913Z,18.85
2023-04-30T17:53:34.517Z,11.63
2023-04-30T17:56:01.233Z,12.93
2023-04-30T17:58:27.979Z,9.70
2023-04-30T18:00:54.602Z,9.52
2023-04-30T18:03:21.385Z,10.90
2023-04-30T18:05:48.184Z,7.40
2023-04-30T18:08:14.802Z,10.77
2023-04-30T18:10:41.475Z,11.25
2023-04-30T18:13:08.197Z,7.28
2023-04-30T18:15:34.933Z,12.02
2023-04-30T18:18:01.685Z,10.17
2023-04-30T18:20:28.446Z,8.73
2023-04-30T18:22:55.081Z,17.23
2023-04-30T18:25:21.774Z,10.07
2023-04-30T18:27:48.573Z,8.07
2023-04-30T18:30:15.275Z,7.03
2023-04-30T18:32:43.029Z,10.60
2023-04-30T18:35:10.239Z,9.82
2023-04-30T18:37:36.896Z,7.70
2023-04-30T18:40:03.724Z,7.65
2023-04-30T18:42:30.451Z,8.87
2023-04-30T18:44:57.129Z,9.50
2023-04-30T18:47:23.792Z,8.65
2023-04-30T18:49:50.456Z,7.32
2023-04-30T18:52:17.119Z,11.60
2023-04-30T18:54:43.709Z,7.67
2023-04-30T18:57:10.524Z,8.57
2023-04-30T18:59:37.273Z,8.80
2023-04-30T19:02:03.944Z,8.82
2023-04-30T19:04:30.698Z,8.70
2023-04-30T19:06:57.449Z,6.90
2023-04-30T19:09:24.150Z,10.98
2023-04-30T19:11:50.813Z,12.50
2023-04-30T19:14:17.562Z,9.18
2023-04-30T19:16:44.242Z,9.73
2023-04-30T19:19:10.843Z,8.90
2023-04-30T19:21:37.515Z,9.27
2023-04-30T19:24:04.264Z,8.23
2023-04-30T19:26:32.482Z,10.65
2023-04-30T19:28:59.078Z,10.35
2023-04-30T19:31:25.779Z,15.87
2023-04-30T19:33:52.486Z,9.73
2023-04-30T19:36:19.341Z,10.43
2023-04-30T19:38:45.950Z,9.73
2023-04-30T19:41:12.595Z,9.73
2023-04-30T19:43:39.292Z,7.67
2023-04-30T19:46:05.992Z,10.88
2023-04-30T19:48:32.633Z,8.38
2023-04-30T19:50:59.289Z,11.32
2023-04-30T19:53:26.007Z,8.85
2023-04-30T19:55:52.917Z,8.37
2023-04-30T19:58:19.569Z,10.75
2023-04-30T20:00:46.364Z,9.68
2023-04-30T20:03:14.827Z,8.63
2023-04-30T20:05:41.828Z,7.53
2023-04-30T20:08:09.486Z,10.80
2023-04-30T20:10:38.427Z,8.00
2023-04-30T20:13:05.962Z,8.65
2023-04-30T20:15:33.101Z,9.02
2023-04-30T20:18:00.580Z,10.73
2023-04-30T20:20:28.569Z,8.20
2023-04-30T20:22:56.049Z,8.40
2023-04-30T20:25:23.728Z,8.45
2023-04-30T20:27:50.445Z,9.38
2023-04-30T20:30:17.220Z,10.57
2023-04-30T20:32:43.930Z,9.03
2023-04-30T20:35:10.654Z,10.30
2023-04-30T20:37:37.605Z,10.15
2023-04-30T20:40:04.673Z,9.30
2023-04-30T20:42:31.375Z,9.55
2023-04-30T20:44:58.075Z,10.37
2023-04-30T20:47:24.959Z,9.25
2023-04-30T20:49:51.578Z,8.75
2023-04-30T20:52:18.235Z,13.43
2023-04-30T20:54:45.473Z,9.10
2023-04-30T20:57:12.076Z,9.73
2023-04-30T20:59:38.736Z,9.45
2023-04-30T21:02:05.531Z,9.07
2023-04-30T21:04:32.270Z,7.82
2023-04-30T21:06:58.990Z,10.25
2023-04-30T21:09:25.665Z,8.70
2023-04-30T21:11:52.394Z,10.13
2023-04-30T21:14:19.061Z,9.98
2023-04-30T21:16:48.398Z,8.55
2023-04-30T21:19:15.063Z,10.65
2023-04-30T21:21:41.702Z,8.27
2023-04-30T21:24:08.359Z,10.50
2023-04-30T21:26:35.218Z,9.10
2023-04-30T21:29:02.419Z,12.15
2023-04-30T21:31:29.335Z,9.68
2023-04-30T21:33:56.133Z,11.93
2023-04-30T21:36:22.803Z,12.80
2023-04-30T21:38:49.613Z,19.30
2023-04-30T21:41:17.080Z,14.00
2023-04-30T21:43:44.446Z,10.70
2023-04-30T21:46:11.254Z,10.37
2023-04-30T21:48:37.926Z,9.13
2023-04-30T21:51:14.728Z,10.23
2023-04-30T21:53:42.012Z,9.50
2023-04-30T21:56:09.474Z,12.77
2023-04-30T21:58:37.014Z,10.70
2023-04-30T22:01:04.346Z,10.60
2023-04-30T22:03:32.015Z,10.23
2023-04-30T22:05:59.297Z,9.95
2023-04-30T22:08:26.067Z,9.75
2023-04-30T22:11:00.092Z,10.03
2023-04-30T22:13:29.621Z,10.13
2023-04-30T22:15:56.565Z,10.23
2023-04-30T22:18:23.836Z,9.25
2023-04-30T22:20:51.226Z,10.48
2023-04-30T22:23:20.753Z,9.33
2023-04-30T22:25:47.922Z,11.55
2023-04-30T22:28:14.688Z,9.27
2023-04-30T22:30:41.506Z,12.73
2023-04-30T22:33:08.300Z,10.65
2023-04-30T22:35:36.552Z,10.03
2023-04-30T22:38:03.200Z,13.55
2023-04-30T22:40:31.146Z,12.35
2023-04-30T22:42:59.138Z,10.88
2023-04-30T22:45:25.999Z,9.10
2023-04-30T22:47:53.822Z,9.97
2023-04-30T22:50:20.550Z,11.30
2023-04-30T22:52:47.267Z,9.73
2023-04-30T22:55:13.999Z,9.65
2023-04-30T22:57:40.693Z,10.75
2023-04-30T23:00:08.016Z,9.73
2023-04-30T23:02:34.724Z,10.27
2023-04-30T23:05:01.455Z,7.93
2023-04-30T23:07:28.078Z,10.30
2023-04-30T23:09:54.915Z,9.48
2023-04-30T23:12:21.803Z,9.00
2023-04-30T23:14:48.545Z,9.07
2023-04-30T23:17:15.207Z,10.00
2023-04-30T23:19:41.837Z,8.07
2023-04-30T23:22:08.558Z,10.45
2023-04-30T23:24:35.238Z,9.60
2023-04-30T23:27:02.665Z,8.65
2023-04-30T23:29:29.390Z,9.63
2023-04-30T23:31:56.099Z,7.45
2023-04-30T23:34:22.907Z,9.07
2023-04-30T23:36:49.651Z,8.37
2023-04-30T23:39:16.356Z,8.95
2023-04-30T23:41:43.023Z,9.85
2023-04-30T23:44:09.680Z,6.95
2023-04-30T23:46:36.555Z,7.80
2023-04-30T23:49:03.284Z,8.00
2023-04-30T23:51:30.046Z,9.65
2023-04-30T23:53:56.729Z,9.18
2023-04-30T23:56:23.300Z,8.32
2023-04-30T23:58:49.940Z,9.70
